Terminal Aerodrome Forecast
Issued by NWS

Home | Current Version | Previous Version | Text Only | Print | Product List | Glossary On
Versions: 1 2 3 4 5 6 7 8 9 10 11 12 13
000
FTUS45 KRIW 061548 AAA
TAFBPI
TAF AMD
KBPI 061548Z 0616/0712 VRB05KT P6SM VCSH SCT050 BKN080
     FM062000 VRB10G16KT P6SM VCTS BKN050CB
     FM070200 34007KT P6SM VCSH BKN070
     FM070600 VRB05KT P6SM SCT080 SCT200
     FM071100 VRB04KT P6SM FEW090=

USA.gov is the U.S. government's official web portal to all federal, state and local government web resources and services.